Date,TemperatureHighF,TemperatureAvgF,TemperatureLowF,DewpointHighF,DewpointAvgF,DewpointLowF,HumidityHigh,HumidityAvg,HumidityLow,PressureMaxIn,PressureMinIn,WindSpeedMaxMPH,WindSpeedAvgMPH,GustSpeedMaxMPH,PrecipitationSumIn
2012-1-1,61.0,50.0,41.0,33.0,28.6,22.0,67,45,28,0.00,40.00,13,6,26,0.00
2012-1-2,54.0,42.1,34.0,31.0,21.8,16.0,72,47,23,0.00,40.00,9,4,17,0.00
2012-1-3,59.0,43.5,29.0,25.0,22.1,19.0,72,46,26,0.00,40.00,13,7,23,0.00
2012-1-4,61.0,48.6,40.0,39.0,32.7,23.0,84,56,33,0.00,40.00,9,5,20,0.00
2012-1-5,69.0,49.4,34.0,40.0,34.1,31.0,92,61,26,0.00,40.00,8,4,13,0.00
2012-1-6,73.0,61.0,45.0,55.0,46.9,37.0,88,62,34,0.00,40.00,11,8,22,0.00
2012-1-7,63.0,51.4,43.0,53.0,41.5,36.0,88,69,55,0.00,40.00,10,5,19,0.00
2012-1-8,57.0,47.8,37.0,50.0,43.1,35.0,97,84,76,0.00,40.00,8,4,14,0.00
2012-1-9,53.0,45.2,43.0,46.0,43.7,41.0,97,94,77,0.00,40.00,11,7,22,2.23
2012-1-10,45.0,43.6,42.0,43.0,41.3,40.0,98,92,83,0.00,40.00,8,6,16,1.08
2012-1-11,67.0,50.2,38.0,48.0,39.6,33.0,91,69,43,0.00,40.00,16,6,34,0.01
2012-1-12,44.0,36.3,29.0,33.0,14.3,7.0,66,42,24,0.00,40.00,17,10,29,0.00
2012-1-13,58.0,42.6,29.0,29.0,22.1,10.0,70,46,28,0.00,40.00,8,5,15,0.00
2012-1-14,70.0,51.4,38.0,32.0,26.2,22.0,54,40,19,0.00,40.00,8,6,13,0.00
2012-1-15,65.0,55.3,43.0,52.0,34.8,26.0,72,47,34,0.00,40.00,16,10,28,0.00
2012-1-16,70.0,64.9,61.0,62.0,58.4,52.0,86,79,72,0.00,40.00,14,11,28,0.00
2012-1-17,67.0,52.2,38.0,63.0,38.7,19.0,94,62,39,0.00,40.00,15,9,26,0.00
2012-1-18,56.0,41.5,27.0,33.0,23.8,16.0,71,51,33,0.00,40.00,9,5,15,0.00
2012-1-19,74.0,57.9,47.0,44.0,37.6,30.0,74,50,24,0.00,40.00,11,6,20,0.00
2012-1-20,77.0,63.2,50.0,61.0,54.4,41.0,93,75,47,0.00,40.00,13,8,20,0.00
2012-1-21,52.0,44.5,37.0,39.0,31.9,28.0,81,63,43,0.00,40.00,12,7,22,0.00
2012-1-22,80.0,59.9,44.0,61.0,42.7,21.0,95,63,14,0.00,40.00,16,10,28,0.00
2012-1-23,64.0,50.8,39.0,37.0,32.1,26.0,79,51,25,0.00,40.00,10,3,20,0.00
2012-1-24,67.0,55.0,46.0,54.0,39.7,29.0,97,60,34,0.00,40.00,10,6,22,0.91
2012-1-25,52.0,48.8,47.0,51.0,47.0,45.0,98,94,88,0.00,40.00,13,8,25,3.55
2012-1-26,62.0,50.5,43.0,46.0,41.1,37.0,98,74,41,0.00,40.00,9,6,18,0.27
2012-1-27,67.0,53.2,39.0,44.0,38.6,31.0,87,60,41,0.00,40.00,13,8,27,0.01
2012-1-28,53.0,45.4,35.0,33.0,25.0,19.0,63,46,29,0.00,40.00,12,8,27,0.00
2012-1-29,60.0,44.7,30.0,31.0,26.4,23.0,78,52,25,0.00,40.00,9,5,15,0.00
2012-1-30,67.0,57.4,49.0,55.0,42.3,27.0,78,58,38,0.00,40.00,12,9,22,0.00
2012-1-31,75.0,65.4,60.0,60.0,57.4,55.0,88,77,56,0.00,40.00,13,9,22,0.00
2012-2-1,74.0,63.2,54.0,61.0,55.7,48.0,97,78,52,0.00,40.00,8,5,15,0.00
2012-2-2,75.0,59.5,44.0,63.0,54.8,43.0,99,86,61,0.00,40.00,8,4,20,0.00
2012-2-3,74.0,66.9,58.0,68.0,61.9,46.0,96,84,64,0.00,40.00,14,8,22,0.03
2012-2-4,58.0,51.0,45.0,47.0,39.5,34.0,77,65,52,0.00,40.00,13,10,22,0.01
2012-2-5,48.0,42.3,34.0,34.0,32.0,30.0,86,67,54,0.00,40.00,14,8,22,0.00
2012-2-6,55.0,43.2,32.0,40.0,34.5,30.0,96,74,46,0.00,40.00,6,3,14,0.00
2012-2-7,61.0,51.3,44.0,42.0,39.3,37.0,81,64,47,0.00,40.00,6,3,10,0.00
2012-2-8,46.0,43.0,40.0,39.0,35.8,33.0,86,76,65,0.00,40.00,8,5,15,0.00
2012-2-9,58.0,46.1,32.0,42.0,36.7,31.0,96,71,52,0.00,40.00,9,4,21,0.00
2012-2-10,60.0,49.5,37.0,47.0,39.7,26.0,95,71,44,0.00,40.00,11,8,22,0.09
2012-2-11,39.0,33.6,28.0,27.0,15.6,10.0,69,49,30,0.00,40.00,12,9,23,0.01
2012-2-12,43.0,33.6,23.0,32.0,16.6,11.0,93,52,31,0.00,40.00,8,5,14,0.05
2012-2-13,48.0,40.2,34.0,45.0,38.1,32.0,97,93,88,0.00,40.00,7,5,15,0.20
2012-2-14,67.0,53.4,46.0,53.0,48.9,45.0,99,86,57,0.00,40.00,11,6,20,0.01
2012-2-15,76.0,60.4,53.0,62.0,46.4,28.0,97,68,24,0.00,40.00,11,6,20,0.00
2012-2-16,56.0,49.6,44.0,43.0,40.8,30.0,86,72,37,0.00,40.00,8,5,16,0.00
2012-2-17,65.0,53.0,46.0,53.0,45.2,41.0,95,77,46,0.00,40.00,7,4,12,0.06
2012-2-18,53.0,48.4,45.0,48.0,46.4,43.0,98,93,75,0.00,40.00,12,7,21,2.08
2012-2-19,56.0,47.3,41.0,46.0,42.1,39.0,97,82,60,0.00,40.00,8,5,16,0.22
2012-2-20,65.0,53.9,44.0,54.0,44.6,20.0,91,74,22,0.00,40.00,15,9,25,0.00
2012-2-21,71.0,54.2,35.0,55.0,35.8,24.0,74,53,24,0.00,40.00,12,6,19,0.00
2012-2-22,80.0,66.3,56.0,57.0,44.5,30.0,95,54,17,0.00,40.00,10,8,20,0.00
2012-2-23,84.0,67.2,56.0,42.0,34.6,29.0,46,32,16,0.00,40.00,15,10,28,0.00
2012-2-24,60.0,51.0,37.0,34.0,22.2,13.0,58,33,18,0.00,40.00,15,8,24,0.00
2012-2-25,64.0,49.8,37.0,24.0,19.7,15.0,58,33,15,0.00,40.00,12,6,18,0.00
2012-2-26,66.0,54.3,44.0,47.0,37.4,21.0,73,53,33,0.00,40.00,15,10,25,0.00
2012-2-27,73.0,62.2,55.0,54.0,50.6,47.0,80,67,47,0.00,40.00,8,4,15,0.00
2012-2-28,75.0,66.4,61.0,65.0,58.6,51.0,87,76,67,0.00,40.00,15,10,28,0.00
2012-2-29,78.0,67.1,56.0,65.0,39.2,23.0,94,44,14,0.00,40.00,11,5,24,0.04
2012-3-1,82.0,65.7,55.0,65.0,48.0,29.0,88,55,33,0.00,40.00,14,8,24,0.04
2012-3-2,71.0,63.4,54.0,67.0,47.3,31.0,96,60,34,0.00,40.00,11,8,22,0.00
2012-3-3,62.0,51.0,38.0,36.0,29.5,23.0,71,46,24,0.00,40.00,8,5,17,0.00
2012-3-4,76.0,55.5,41.0,32.0,25.4,19.0,56,36,12,0.00,40.00,9,6,16,0.00
2012-3-5,78.0,65.2,51.0,38.0,33.2,28.0,48,32,16,0.00,40.00,14,8,25,0.00
2012-3-6,72.0,63.4,53.0,52.0,48.9,37.0,85,61,39,0.00,40.00,18,14,33,0.00
2012-3-7,70.0,66.8,64.0,64.0,59.3,52.0,90,77,65,0.00,40.00,18,13,31,0.00
2012-3-8,72.0,58.6,44.0,69.0,54.6,36.0,95,86,74,0.00,40.00,14,10,30,0.14
2012-3-9,51.0,45.8,42.0,36.0,30.7,27.0,74,57,41,0.00,40.00,13,9,26,0.01
2012-3-10,52.0,49.3,47.0,48.0,38.0,-99.9,96,72,45,0.00,40.00,7,4,15,1.00
2012-3-11,65.0,55.7,49.0,54.0,51.3,48.0,98,87,60,0.00,40.00,11,5,16,0.65
2012-3-12,79.0,63.9,54.0,62.0,55.4,52.0,96,77,40,0.00,40.00,11,8,18,0.01
2012-3-13,76.0,68.6,64.0,66.0,63.3,62.0,95,84,64,0.00,40.00,11,8,21,0.00
2012-3-14,77.0,71.4,67.0,66.0,63.7,62.0,87,77,64,0.00,40.00,12,10,21,0.00
2012-3-15,79.0,72.4,67.0,65.0,64.0,62.0,86,76,60,0.00,40.00,12,10,25,0.00
2012-3-16,78.0,71.5,67.0,65.0,63.7,62.0,88,77,59,0.00,40.00,12,10,22,0.00
2012-3-17,79.0,71.4,65.0,64.0,61.6,59.0,89,73,52,0.00,40.00,14,10,26,0.00
2012-3-18,75.0,70.6,67.0,65.0,63.1,59.0,85,77,63,0.00,40.00,17,12,30,0.00
2012-3-19,79.0,70.0,57.0,65.0,61.6,50.0,97,76,54,0.00,40.00,24,14,40,1.00
2012-3-20,65.0,57.3,51.0,57.0,50.6,-99.9,98,82,63,0.00,40.00,9,5,17,3.35
2012-3-21,66.0,57.2,50.0,51.0,43.0,35.0,91,61,35,0.00,40.00,11,7,21,0.12
2012-3-22,75.0,57.2,49.0,53.0,44.4,-99.9,92,66,44,0.00,40.00,11,-7,21,0.14
2012-3-23,78.0,59.7,46.0,49.0,45.0,42.0,92,64,29,0.00,40.00,4,3,9,0.04
2012-3-24,82.0,65.4,51.0,58.0,52.1,44.0,92,65,41,0.00,40.00,5,3,11,0.00
2012-3-25,84.0,70.7,57.0,57.0,54.0,51.0,92,58,36,0.00,40.00,6,4,10,0.00
2012-3-26,83.0,72.3,63.0,59.0,55.2,51.0,82,56,40,0.00,40.00,9,6,22,0.00
2012-3-27,80.0,70.6,61.0,59.0,55.7,51.0,85,61,43,0.00,40.00,12,8,22,0.00
2012-3-28,77.0,69.3,64.0,65.0,60.9,56.0,91,75,61,0.00,40.00,10,7,17,0.00
2012-3-29,80.0,68.9,61.0,67.0,63.1,59.0,96,82,61,0.00,40.00,8,5,14,0.00
2012-3-30,81.0,72.8,67.0,68.0,66.4,65.0,96,81,63,0.00,40.00,11,7,17,0.00
2012-3-31,85.0,73.7,65.0,68.0,65.8,64.0,96,78,54,0.00,40.00,11,7,19,0.00
2012-4-1,87.0,76.0,67.0,68.0,65.9,64.0,92,73,47,0.00,40.00,13,10,22,0.00
2012-4-2,85.0,73.8,68.0,69.0,64.4,59.0,89,74,47,0.00,40.00,14,10,24,0.00
2012-4-3,77.0,68.7,60.0,71.0,65.4,59.0,97,89,79,0.00,40.00,9,5,17,0.63
2012-4-4,77.0,64.3,58.0,61.0,56.9,50.0,99,80,41,0.00,40.00,6,4,12,0.01
2012-4-5,78.0,65.3,52.0,55.0,52.5,50.0,96,67,41,0.00,40.00,6,4,12,0.01
2012-4-6,81.0,65.7,53.0,59.0,55.2,51.0,96,71,45,0.00,40.00,7,4,12,0.00
2012-4-7,83.0,70.8,60.0,65.0,60.0,55.0,89,70,49,0.00,40.00,9,6,17,0.00
2012-4-8,73.0,66.4,60.0,65.0,61.9,59.0,97,86,71,0.00,40.00,10,3,19,0.95
2012-4-9,77.0,65.5,58.0,66.0,61.8,57.0,100,89,67,0.00,40.00,4,3,10,0.02
2012-4-10,84.0,72.3,63.0,65.0,61.7,60.0,94,71,47,0.00,40.00,7,5,12,0.01
2012-4-11,83.0,73.2,65.0,66.0,60.7,56.0,82,67,46,0.00,40.00,8,5,17,0.00
2012-4-12,78.0,70.4,63.0,66.0,62.0,59.0,91,76,55,0.00,40.00,12,7,24,0.00
2012-4-13,79.0,72.1,65.0,67.0,63.6,58.0,88,75,61,0.00,40.00,13,10,23,0.00
2012-4-14,79.0,74.1,71.0,68.0,64.3,-99.9,85,74,65,0.00,40.00,18,14,31,0.00
2012-4-15,75.0,68.7,60.0,69.0,58.8,47.0,90,72,46,0.00,40.00,20,8,34,0.11
2012-4-16,74.0,63.4,51.0,53.0,48.0,44.0,89,59,41,0.00,40.00,10,5,19,0.08
2012-4-17,81.0,63.8,49.0,58.0,50.7,47.0,95,67,35,0.00,40.00,6,3,13,0.00
2012-4-18,80.0,67.5,56.0,57.0,52.4,48.0,82,60,41,0.00,40.00,9,6,22,0.00
2012-4-19,81.0,70.3,58.0,54.0,49.8,44.0,68,49,36,0.00,40.00,13,10,24,0.00
2012-4-20,71.0,64.8,60.0,63.0,56.2,47.0,95,75,53,0.00,40.00,14,8,23,0.18
2012-4-21,75.0,61.1,45.0,50.0,44.8,42.0,94,59,31,0.00,40.00,10,5,17,0.01
2012-4-22,82.0,66.4,49.0,55.0,47.0,39.0,88,54,32,0.00,40.00,10,4,20,0.00
2012-4-23,76.0,64.1,45.0,46.0,39.4,33.0,87,43,24,0.00,40.00,7,4,14,0.00
2012-4-24,86.0,70.5,53.0,54.0,47.3,38.0,70,45,32,0.00,40.00,12,7,20,0.00
2012-4-25,88.0,76.6,65.0,67.0,62.0,54.0,85,62,48,0.00,40.00,14,11,25,0.00
2012-4-26,89.0,77.9,69.0,69.0,65.4,61.0,84,67,47,0.00,40.00,14,10,24,0.00
2012-4-27,88.0,77.6,68.0,68.0,62.3,58.0,85,63,37,0.00,40.00,17,12,30,0.00
2012-4-28,87.0,76.0,69.0,66.0,61.0,-99.9,82,63,43,0.00,40.00,17,12,29,0.00
2012-4-29,87.0,76.7,68.0,69.0,62.2,55.0,88,63,39,0.00,40.00,13,8,23,0.00
2012-4-30,85.0,77.4,72.0,70.0,66.9,64.0,87,71,51,0.00,40.00,13,10,22,0.00
2012-5-1,87.0,77.9,70.0,69.0,64.7,61.0,88,66,48,0.00,40.00,16,12,25,0.00
2012-5-2,85.0,76.8,71.0,69.0,65.9,62.0,86,70,52,0.00,40.00,14,9,23,0.00
2012-5-3,91.0,80.9,70.0,70.0,66.1,64.0,89,63,46,0.00,40.00,12,8,18,0.00
2012-5-4,95.0,81.5,71.0,71.0,67.0,58.0,86,63,43,0.00,40.00,14,9,36,0.04
2012-5-5,92.0,79.8,67.0,70.0,63.5,-99.9,78,60,47,0.00,40.00,12,8,21,0.04
2012-5-6,90.0,80.8,73.0,70.0,65.9,59.0,88,63,36,0.00,40.00,15,9,25,0.00
2012-5-7,91.0,78.5,67.0,71.0,66.1,64.0,94,68,44,0.00,40.00,17,6,25,0.10
2012-5-8,74.0,69.0,66.0,67.0,62.5,57.0,94,80,65,0.00,40.00,9,5,16,0.10
2012-5-9,83.0,72.0,61.0,58.0,50.7,42.0,86,52,25,0.00,40.00,9,4,17,0.00
2012-5-10,81.0,72.5,63.0,57.0,50.4,45.0,62,47,32,0.00,40.00,10,5,18,0.00
2012-5-11,79.0,68.6,61.0,68.0,62.4,57.0,97,82,61,0.00,40.00,8,4,22,0.99
2012-5-12,72.0,64.8,59.0,67.0,59.4,-99.9,98,87,66,0.00,40.00,8,3,15,0.98
2012-5-13,84.0,70.1,59.0,63.0,58.7,54.0,97,71,39,0.00,40.00,6,3,11,0.06
2012-5-14,84.0,71.1,57.0,65.0,58.0,52.0,96,67,38,0.00,40.00,5,3,12,0.00
2012-5-15,85.0,73.9,62.0,61.0,55.3,48.0,88,57,30,0.00,40.00,7,4,20,0.00
2012-5-16,90.0,75.3,59.0,62.0,55.5,50.0,88,56,26,0.00,40.00,7,4,11,0.00
2012-5-17,90.0,77.5,65.0,62.0,54.6,49.0,77,49,26,0.00,40.00,9,5,15,0.00
2012-5-18,89.0,78.8,68.0,61.0,56.0,51.0,74,47,31,0.00,40.00,13,9,23,0.00
2012-5-19,89.0,77.8,67.0,65.0,58.0,-99.9,86,55,37,0.00,40.00,14,10,24,0.00
2012-5-20,91.0,79.3,69.0,66.0,59.1,53.0,79,53,29,0.00,40.00,10,5,22,0.00
2012-5-21,90.0,78.2,66.0,65.0,60.2,56.0,79,56,33,0.00,40.00,5,3,14,0.00
2012-5-22,95.0,81.3,67.0,62.0,57.4,51.0,66,46,32,0.00,40.00,7,4,14,0.00
2012-5-23,91.0,81.6,72.0,65.0,61.0,51.0,61,50,39,0.00,40.00,17,11,27,0.00
2012-5-24,94.0,82.4,74.0,68.0,66.1,63.0,75,60,42,0.00,40.00,16,13,29,0.00
2012-5-25,94.0,83.0,72.0,70.0,67.0,65.0,84,61,41,0.00,40.00,15,12,25,0.00
2012-5-26,93.0,83.2,74.0,71.0,65.5,57.0,83,58,35,0.00,40.00,12,9,24,0.00
2012-5-27,93.0,81.9,72.0,69.0,61.8,55.0,87,54,29,0.00,40.00,13,10,22,0.00
2012-5-28,96.0,83.4,72.0,68.0,64.4,58.0,81,55,37,0.00,40.00,14,9,28,0.00
2012-5-29,97.0,81.2,67.0,72.0,66.8,59.0,94,66,36,0.00,40.00,14,6,28,0.18
2012-5-30,92.0,82.0,67.0,69.0,62.6,57.0,79,54,32,0.00,40.00,17,9,30,0.03
2012-5-31,83.0,73.2,65.0,67.0,62.7,51.0,93,72,46,0.00,40.00,10,6,23,0.54
2012-6-1,89.0,73.6,56.0,55.0,51.0,47.0,86,49,26,0.00,40.00,8,4,12,0.20
2012-6-2,96.0,82.1,71.0,68.0,58.0,-99.9,69,47,27,0.00,40.00,11,8,21,0.00
2012-6-3,95.0,84.9,75.0,70.0,66.1,59.0,81,56,30,0.00,40.00,13,10,24,0.00
2012-6-4,95.0,83.6,75.0,72.0,69.0,65.0,81,63,45,0.00,40.00,10,7,19,0.00
2012-6-5,98.0,85.6,74.0,68.0,65.3,63.0,82,54,33,0.00,40.00,9,5,17,0.00
2012-6-6,99.0,79.9,68.0,72.0,67.4,56.0,95,69,33,0.00,40.00,10,5,19,1.21
2012-6-7,77.0,70.6,67.0,69.0,66.2,65.0,96,86,68,0.00,40.00,11,5,20,1.51
2012-6-8,88.0,76.1,69.0,67.0,62.9,60.0,92,66,41,0.00,40.00,6,4,14,0.01
2012-6-9,92.0,80.5,67.0,68.0,63.1,-99.9,87,61,39,0.00,40.00,9,4,15,0.00
2012-6-10,92.0,83.8,75.0,70.0,67.9,66.0,83,60,44,0.00,40.00,14,10,24,0.00
2012-6-11,97.0,86.7,77.0,73.0,71.2,68.0,87,62,41,0.00,40.00,13,10,22,0.00
2012-6-12,91.0,81.7,69.0,72.0,64.6,58.0,87,57,42,0.00,40.00,7,4,18,0.00
2012-6-13,92.0,77.3,67.0,72.0,67.1,63.0,92,73,47,0.00,40.00,9,6,27,0.48
2012-6-14,94.0,83.6,75.0,73.0,69.8,65.0,89,66,40,0.00,40.00,11,7,19,0.48
2012-6-15,92.0,82.0,69.0,73.0,69.6,67.0,94,68,47,0.00,40.00,12,7,21,0.74
2012-6-16,93.0,79.7,73.0,72.0,66.5,-99.9,84,69,42,0.00,40.00,9,7,20,0.74
2012-6-17,90.0,80.0,72.0,72.0,68.0,66.0,85,68,46,0.00,40.00,10,6,20,0.00
2012-6-18,92.0,82.9,74.0,69.0,66.3,63.0,77,59,42,0.00,40.00,11,9,21,0.00
2012-6-19,92.0,81.1,74.0,70.0,68.8,67.0,88,68,46,0.00,40.00,16,11,27,0.00
2012-6-20,93.0,83.4,75.0,71.0,67.2,61.0,85,61,38,0.00,40.00,12,9,22,0.00
2012-6-21,96.0,83.0,73.0,72.0,67.4,62.0,89,62,34,0.00,40.00,8,5,12,0.00
2012-6-22,99.0,85.1,71.0,72.0,64.4,61.0,82,53,30,0.00,40.00,5,3,10,0.00
2012-6-23,100.0,88.2,78.0,70.0,64.7,59.0,72,48,28,0.00,40.00,6,5,13,0.00
2012-6-24,101.0,87.3,70.0,70.0,63.2,59.0,81,48,25,0.00,40.00,7,4,11,0.00
2012-6-25,105.0,88.7,71.0,68.0,61.8,55.0,72,45,20,0.00,40.00,4,2,14,0.00
2012-6-26,107.0,91.7,74.0,71.0,63.3,57.0,68,43,20,0.00,40.00,9,3,15,0.00
2012-6-27,104.0,92.6,81.0,71.0,64.0,50.0,67,42,20,0.00,40.00,8,5,15,0.00
2012-6-28,100.0,89.5,81.0,66.0,60.5,55.0,57,40,23,0.00,40.00,10,7,19,0.00
2012-6-29,98.0,88.4,79.0,71.0,64.9,59.0,74,48,29,0.00,40.00,10,7,17,0.00
2012-6-30,98.0,88.4,77.0,71.0,67.2,60.0,75,52,33,0.00,40.00,13,7,21,0.00
2012-7-1,94.0,82.5,75.0,73.0,67.8,61.0,86,63,38,0.00,40.00,15,8,26,0.00
2012-7-2,93.0,84.0,77.0,73.0,67.5,62.0,82,59,44,0.00,40.00,11,8,21,0.00
2012-7-3,98.0,86.2,77.0,72.0,63.7,57.0,76,50,26,0.00,40.00,11,8,21,0.00
2012-7-4,97.0,86.2,76.0,72.0,65.6,60.0,80,53,30,0.00,40.00,12,9,20,0.00
2012-7-5,99.0,87.8,77.0,72.0,64.6,58.0,78,49,27,0.00,40.00,11,8,19,0.00
2012-7-6,101.0,88.4,77.0,70.0,63.2,58.0,71,46,26,0.00,40.00,9,5,15,0.00
2012-7-7,104.0,84.9,75.0,69.0,65.9,62.0,83,56,26,0.00,40.00,9,5,32,0.00
2012-7-8,100.0,82.8,72.0,75.0,69.6,63.0,91,68,30,0.00,40.00,12,4,20,0.00
2012-7-9,97.0,83.6,73.0,73.0,70.4,65.0,92,68,37,0.00,40.00,13,5,25,0.14
2012-7-10,93.0,81.5,73.0,74.0,70.2,64.0,96,73,42,0.00,40.00,9,4,20,0.15
2012-7-11,96.0,81.8,71.0,74.0,67.8,56.0,95,68,28,0.00,40.00,8,4,16,0.04
2012-7-12,95.0,82.9,71.0,72.0,68.0,62.0,94,65,35,0.00,40.00,10,4,17,0.00
2012-7-13,96.0,84.2,72.0,75.0,67.5,61.0,89,61,33,0.00,40.00,11,4,19,0.00
2012-7-14,97.0,83.9,73.0,74.0,67.7,62.0,92,62,32,0.00,40.00,7,4,32,0.00
2012-7-15,90.0,77.1,71.0,72.0,68.2,64.0,91,76,49,0.00,40.00,10,4,24,0.52
2012-7-16,94.0,81.2,70.0,73.0,68.6,66.0,93,68,40,0.00,40.00,10,7,19,0.03
2012-7-17,97.0,85.1,75.0,72.0,68.0,65.0,87,60,36,0.00,40.00,9,7,17,0.00
2012-7-18,100.0,87.1,76.0,74.0,68.6,63.0,88,58,33,0.00,40.00,8,6,17,0.00
2012-7-19,100.0,88.4,76.0,72.0,66.8,61.0,81,52,29,0.00,40.00,8,6,14,0.00
2012-7-20,105.0,88.9,78.0,72.0,66.7,57.0,80,52,24,0.00,40.00,8,5,29,0.01
2012-7-21,109.0,92.6,79.0,70.0,63.7,55.0,72,42,19,0.00,40.00,7,4,15,0.01
2012-7-22,101.0,89.1,80.0,70.0,65.9,60.0,68,49,26,0.00,40.00,13,8,26,0.00
2012-7-23,98.0,87.9,75.0,73.0,65.6,61.0,79,50,31,0.00,40.00,11,8,17,0.00
2012-7-24,98.0,87.1,76.0,72.0,67.0,62.0,82,54,32,0.00,40.00,10,8,20,0.00
2012-7-25,101.0,88.5,78.0,73.0,68.0,62.0,79,53,31,0.00,40.00,12,9,21,0.00
2012-7-26,101.0,88.8,78.0,72.0,67.9,64.0,76,53,33,0.00,40.00,12,8,21,0.00
2012-7-27,98.0,87.8,79.0,71.0,67.4,59.0,74,53,29,0.00,40.00,11,7,19,0.00
2012-7-28,105.0,91.3,79.0,72.0,64.9,54.0,72,45,19,0.00,40.00,8,6,21,0.00
2012-7-29,106.0,92.4,77.0,66.0,58.3,50.0,58,35,16,0.00,40.00,10,6,19,0.00
2012-7-30,105.0,93.5,79.0,68.0,60.7,50.0,64,37,18,0.00,40.00,8,6,15,0.00
2012-7-31,107.0,92.9,80.0,69.0,63.0,55.0,65,40,19,0.00,40.00,10,7,20,0.00
2012-8-1,106.0,91.4,81.0,67.0,64.4,59.0,62,43,24,0.00,40.00,11,8,16,0.00
2012-8-2,107.0,97.6,86.0,65.0,58.5,53.0,49,29,18,0.00,40.00,12,10,21,0.00
2012-8-3,104.0,90.8,78.0,66.0,63.5,57.0,65,43,24,0.00,40.00,13,9,21,0.00
2012-8-4,102.0,90.2,79.0,71.0,65.0,59.0,73,46,25,0.00,40.00,11,8,21,0.00
2012-8-5,104.0,91.4,80.0,70.0,65.8,61.0,70,46,26,0.00,40.00,9,5,15,0.00
2012-8-6,105.0,91.4,79.0,70.0,65.5,61.0,65,45,27,0.00,40.00,7,4,13,0.00
2012-8-7,105.0,92.9,81.0,66.0,63.3,58.0,57,39,23,0.00,40.00,7,4,16,0.00
2012-8-8,101.0,89.2,81.0,73.0,66.9,63.0,66,49,33,0.00,40.00,9,5,20,0.00
2012-8-9,108.0,90.4,73.0,74.0,65.4,53.0,91,52,18,0.00,40.00,9,5,16,0.01
2012-8-10,99.0,89.5,78.0,69.0,59.9,46.0,72,39,19,0.00,40.00,8,5,16,0.00
2012-8-11,100.0,84.3,71.0,56.0,47.3,-99.9,57,32,14,0.00,40.00,8,4,13,0.00
2012-8-12,104.0,89.0,76.0,69.0,60.7,46.0,61,41,25,0.00,40.00,13,8,24,0.01
2012-8-13,105.0,91.4,80.0,69.0,56.0,36.0,65,37,10,0.00,40.00,11,6,19,0.01
2012-8-14,106.0,90.6,76.0,68.0,56.8,49.0,62,34,17,0.00,40.00,12,6,23,0.00
2012-8-15,97.0,81.4,70.0,74.0,68.5,62.0,94,69,34,0.00,40.00,10,6,23,0.95
2012-8-16,91.0,84.0,78.0,71.0,67.2,63.0,74,58,44,0.00,40.00,11,7,19,0.03
2012-8-17,103.0,87.5,77.0,72.0,66.9,62.0,72,53,29,0.00,40.00,8,4,14,0.00
2012-8-18,89.0,77.1,68.0,76.0,66.7,60.0,94,72,48,0.00,40.00,10,6,24,1.23
2012-8-19,93.0,77.8,67.0,69.0,64.4,53.0,95,69,34,0.00,40.00,7,3,12,1.19
2012-8-20,93.0,78.5,65.0,66.0,58.3,52.0,83,55,26,0.00,40.00,7,4,17,0.00
2012-8-21,76.0,71.6,65.0,69.0,63.0,53.0,96,76,45,0.00,40.00,5,3,8,0.25
2012-8-22,93.0,77.8,65.0,69.0,62.8,55.0,98,66,32,0.00,40.00,6,3,17,0.01
2012-8-23,96.0,82.7,71.0,71.0,62.5,55.0,85,53,28,0.00,40.00,9,6,15,0.01
2012-8-24,95.0,83.4,72.0,73.0,67.4,62.0,90,61,35,0.00,40.00,8,6,15,0.00
2012-8-25,95.0,84.6,78.0,74.0,69.6,64.0,82,63,40,0.00,40.00,13,10,21,0.00
2012-8-26,90.0,78.4,72.0,75.0,72.3,68.0,96,83,55,0.00,40.00,12,6,21,1.13
2012-8-27,96.0,82.4,71.0,76.0,71.1,64.0,98,73,35,0.00,40.00,6,3,16,0.01
2012-8-28,95.0,83.2,74.0,75.0,71.4,66.0,92,69,48,0.00,40.00,9,4,16,0.01
2012-8-29,96.0,84.4,68.0,66.0,61.7,59.0,83,49,31,0.00,40.00,9,6,19,0.00
2012-8-30,97.0,87.7,70.0,68.0,64.3,60.0,76,48,32,0.00,40.00,10,6,20,0.00
2012-8-31,102.0,86.6,76.0,72.0,67.4,60.0,77,56,29,0.00,40.00,7,3,12,0.00
2012-9-1,100.0,87.8,78.0,75.0,69.1,65.0,82,56,35,0.00,40.00,9,7,16,0.00
2012-9-2,101.0,88.8,78.0,72.0,68.1,63.0,79,53,31,0.00,40.00,9,8,17,0.00
2012-9-3,102.0,89.1,79.0,72.0,66.0,61.0,71,48,29,0.00,40.00,8,7,15,0.00
2012-9-4,104.0,89.4,78.0,73.0,66.7,59.0,78,50,25,0.00,40.00,10,7,15,0.00
2012-9-5,104.0,89.9,78.0,71.0,64.7,54.0,73,46,26,0.00,40.00,10,7,17,0.00
2012-9-6,105.0,90.1,74.0,70.0,62.7,54.0,76,44,21,0.00,40.00,8,4,14,0.00
2012-9-7,106.0,92.0,80.0,69.0,62.9,58.0,62,40,24,0.00,40.00,11,7,19,0.00
2012-9-8,88.0,77.2,68.0,63.0,54.8,46.0,80,50,26,0.00,40.00,15,10,26,0.00
2012-9-9,90.0,76.0,55.0,61.0,48.8,42.0,91,46,19,0.00,40.00,6,3,12,0.00
2012-9-10,96.0,81.3,62.0,57.0,46.8,44.0,64,34,18,0.00,40.00,6,4,14,0.00
2012-9-11,94.0,79.7,68.0,59.0,51.5,47.0,63,40,22,0.00,40.00,9,7,17,0.00
2012-9-12,95.0,81.5,69.0,69.0,60.6,49.0,79,52,30,0.00,40.00,8,6,15,0.00
2012-9-13,85.0,78.9,71.0,74.0,66.4,62.0,88,67,47,0.00,40.00,9,6,18,0.03
2012-9-14,72.0,68.1,65.0,65.0,62.5,60.0,90,82,72,0.00,40.00,7,5,13,0.03
2012-9-15,80.0,68.9,64.0,62.0,60.1,59.0,87,75,54,0.00,40.00,6,4,11,0.01
2012-9-16,69.0,66.8,65.0,66.0,63.4,60.0,96,89,75,0.00,40.00,4,2,7,0.36
2012-9-17,84.0,72.6,66.0,68.0,64.8,60.0,96,79,50,0.00,40.00,5,3,10,0.02
2012-9-18,84.0,70.0,59.0,65.0,56.8,37.0,96,69,22,0.00,40.00,10,4,20,0.00
2012-9-19,89.0,73.2,57.0,59.0,47.1,43.0,81,44,20,0.00,40.00,8,5,15,0.00
2012-9-20,95.0,80.1,66.0,60.0,53.7,48.0,56,42,25,0.00,40.00,10,7,16,0.00
2012-9-21,97.0,82.5,69.0,61.0,52.1,45.0,65,38,19,0.00,40.00,13,7,20,0.00
2012-9-22,98.0,80.5,68.0,59.0,50.4,-99.9,60,40,17,0.00,40.00,7,5,14,0.00
2012-9-23,97.0,81.8,65.0,62.0,56.9,51.0,83,46,23,0.00,40.00,9,4,17,0.00
2012-9-24,98.0,84.4,73.0,69.0,59.5,47.0,79,47,19,0.00,40.00,11,8,20,0.00
2012-9-25,95.0,83.4,73.0,69.0,61.5,54.0,84,52,27,0.00,40.00,14,10,24,0.00
2012-9-26,94.0,82.5,74.0,72.0,62.9,55.0,86,55,30,0.00,40.00,14,9,24,0.00
2012-9-27,92.0,81.5,73.0,70.0,64.5,57.0,86,58,33,0.00,40.00,11,6,19,0.00
2012-9-28,90.0,78.0,70.0,69.0,64.8,60.0,78,65,41,0.00,40.00,9,4,17,0.00
2012-9-29,75.0,68.9,66.0,68.0,65.9,63.0,95,90,75,0.00,40.00,13,7,23,3.15
2012-9-30,73.0,66.3,56.0,66.0,60.3,51.0,95,82,51,0.00,40.00,11,7,21,2.14
2012-10-1,84.0,68.0,54.0,63.0,54.5,49.0,96,68,32,0.00,40.00,8,4,17,0.01
2012-10-2,81.0,70.3,63.0,58.0,54.7,52.0,74,59,38,0.00,40.00,6,4,12,0.00
2012-10-3,85.0,71.9,62.0,57.0,51.5,47.0,73,52,27,0.00,40.00,10,6,19,0.00
2012-10-4,86.0,75.7,65.0,69.0,61.9,52.0,77,63,54,0.00,40.00,11,8,19,0.00
2012-10-5,87.0,74.7,60.0,69.0,63.2,51.0,84,69,49,0.00,40.00,11,7,21,0.00
2012-10-6,60.0,53.8,48.0,51.0,45.4,41.0,80,73,66,0.00,40.00,11,8,19,0.00
2012-10-7,53.0,50.0,48.0,41.0,36.0,33.0,77,59,46,0.00,40.00,10,6,16,0.00
2012-10-8,69.0,52.2,37.0,43.0,38.8,34.0,91,64,35,0.00,40.00,5,3,11,0.00
2012-10-9,82.0,66.1,53.0,65.0,55.2,43.0,80,69,51,0.00,40.00,12,9,24,0.00
2012-10-10,75.0,69.9,64.0,66.0,63.7,60.0,94,81,69,0.00,40.00,7,5,14,0.00
2012-10-11,89.0,74.2,62.0,73.0,67.0,60.0,93,80,53,0.00,40.00,10,5,20,0.00
2012-10-12,87.0,76.7,70.0,70.0,67.6,65.0,92,75,51,0.00,40.00,10,7,17,0.00
2012-10-13,82.0,76.2,71.0,73.0,68.8,65.0,86,78,63,0.00,40.00,16,12,31,0.01
2012-10-14,83.0,71.1,60.0,70.0,58.0,50.0,93,67,36,0.00,40.00,13,5,28,0.97
2012-10-15,84.0,66.4,52.0,58.0,50.7,47.0,92,63,28,0.00,40.00,6,3,10,0.01
2012-10-16,76.0,68.3,63.0,63.0,53.6,46.0,87,60,50,0.00,40.00,12,8,22,0.00
2012-10-17,88.0,74.0,64.0,68.0,58.6,41.0,87,63,31,0.00,40.00,13,9,25,0.00
2012-10-18,77.0,64.1,48.0,47.0,36.2,28.0,65,39,17,0.00,40.00,8,4,13,0.00
2012-10-19,80.0,62.0,46.0,42.0,34.8,27.0,79,41,16,0.00,40.00,7,4,14,0.00
2012-10-20,86.0,72.8,60.0,67.0,52.0,33.0,75,49,32,0.00,40.00,14,9,23,0.00
2012-10-21,89.0,80.0,75.0,71.0,68.3,65.0,81,69,46,0.00,40.00,14,12,24,0.00
2012-10-22,85.0,76.6,73.0,72.0,67.7,63.0,86,75,57,0.00,40.00,12,9,25,0.00
2012-10-23,84.0,76.2,70.0,70.0,66.0,64.0,87,72,56,0.00,40.00,12,10,21,0.00
2012-10-24,85.0,75.2,68.0,68.0,63.7,61.0,89,69,49,0.00,40.00,13,10,22,0.00
2012-10-25,80.0,69.1,57.0,69.0,59.9,44.0,86,73,60,0.00,40.00,14,10,26,0.02
2012-10-26,58.0,51.9,48.0,44.0,38.4,30.0,71,60,48,0.00,40.00,11,9,22,0.03
2012-10-27,59.0,48.1,40.0,35.0,30.9,25.0,79,53,33,0.00,40.00,8,5,18,0.00
2012-10-28,64.0,47.2,34.0,37.0,30.3,26.0,88,57,25,0.00,40.00,7,3,14,0.00
2012-10-29,71.0,52.4,36.0,39.0,29.7,25.0,82,47,20,0.00,40.00,6,3,9,0.00
2012-10-30,78.0,61.6,44.0,44.0,36.9,31.0,65,42,26,0.00,40.00,9,5,14,0.00
2012-10-31,84.0,66.4,55.0,54.0,46.7,43.0,80,52,25,0.00,40.00,6,4,12,0.00
2012-11-1,89.0,69.6,51.0,55.0,48.0,41.0,80,50,21,0.00,40.00,6,3,11,0.00
2012-11-2,89.0,73.8,60.0,60.0,51.8,44.0,75,49,23,0.00,40.00,11,7,19,0.00
2012-11-3,85.0,73.4,64.0,66.0,60.4,52.0,90,65,45,0.00,40.00,11,6,19,0.00
2012-11-4,76.0,62.8,53.0,54.0,45.6,41.0,80,56,33,0.00,40.00,5,3,13,0.00
2012-11-5,76.0,61.1,49.0,53.0,44.4,32.0,94,60,28,0.00,40.00,9,4,17,0.00
2012-11-6,75.0,55.7,41.0,43.0,39.3,34.0,84,57,28,0.00,40.00,5,3,9,0.00
2012-11-7,77.0,59.3,44.0,50.0,40.8,35.0,91,57,22,0.00,40.00,8,3,16,0.00
2012-11-8,81.0,67.8,54.0,60.0,49.2,37.0,69,52,37,0.00,40.00,15,11,24,0.00
2012-11-9,83.0,71.6,64.0,63.0,57.1,51.0,84,62,39,0.00,40.00,15,12,29,0.00
2012-11-10,81.0,72.5,66.0,62.0,58.9,54.0,81,63,45,0.00,40.00,17,13,31,0.00
2012-11-11,75.0,65.0,47.0,64.0,56.1,38.0,83,73,61,0.00,40.00,19,10,32,0.02
2012-11-12,56.0,43.7,35.0,38.0,24.3,17.0,72,49,23,0.00,40.00,9,6,19,0.02
2012-11-13,59.0,44.9,30.0,34.0,25.8,19.0,91,54,24,0.00,40.00,7,3,12,0.00
2012-11-14,64.0,51.1,40.0,34.0,27.3,-99.9,68,42,26,0.00,40.00,7,4,13,0.00
2012-11-15,68.0,53.1,41.0,34.0,30.5,25.0,64,43,28,0.00,40.00,7,4,13,0.00
2012-11-16,67.0,50.6,36.0,37.0,31.1,29.0,75,51,26,0.00,40.00,6,3,13,0.00
2012-11-17,68.0,53.5,42.0,34.0,29.1,25.0,56,41,24,0.00,40.00,7,4,12,0.00
2012-11-18,70.0,57.6,48.0,42.0,34.6,30.0,57,43,28,0.00,40.00,9,7,16,0.00
2012-11-19,72.0,63.7,57.0,53.0,46.5,33.0,69,54,37,0.00,40.00,10,8,18,0.00
2012-11-20,82.0,65.4,52.0,58.0,52.9,48.0,93,66,36,0.00,40.00,9,4,15,0.00
2012-11-21,82.0,64.7,49.0,61.0,48.6,43.0,95,62,29,0.00,40.00,9,4,15,0.00
2012-11-22,77.0,67.3,58.0,55.0,49.5,44.0,65,53,39,0.00,40.00,13,9,22,0.00
2012-11-23,66.0,59.9,50.0,54.0,35.6,22.0,84,45,20,0.00,40.00,15,8,28,0.00
2012-11-24,63.0,48.9,31.0,27.0,21.8,18.0,66,37,18,0.00,40.00,10,5,15,0.00
2012-11-25,76.0,61.7,48.0,54.0,35.3,20.0,65,38,28,0.00,40.00,12,10,22,0.00
2012-11-26,66.0,62.8,62.0,59.0,56.8,54.0,89,81,65,0.00,40.00,10,9,22,0.00
2012-11-27,54.0,45.2,39.0,37.0,33.9,29.0,86,65,53,0.00,40.00,11,5,20,0.00
2012-11-28,68.0,49.6,34.0,42.0,36.0,32.0,93,64,33,0.00,40.00,10,5,17,0.00
2012-11-29,69.0,58.5,49.0,48.0,40.6,35.0,78,53,31,0.00,40.00,12,8,19,0.00
2012-11-30,76.0,65.2,57.0,60.0,56.1,48.0,86,74,56,0.00,40.00,11,9,21,0.00
2012-12-1,83.0,72.2,64.0,65.0,61.1,58.0,90,70,47,0.00,40.00,13,10,22,0.00
2012-12-2,82.0,72.5,67.0,66.0,61.6,56.0,87,69,44,0.00,40.00,13,9,21,0.00
2012-12-3,81.0,71.3,64.0,61.0,58.6,56.0,85,66,46,0.00,40.00,13,10,23,0.00
2012-12-4,72.0,63.9,53.0,60.0,44.2,25.0,80,52,24,0.00,40.00,10,6,19,0.00
2012-12-5,67.0,53.1,39.0,47.0,38.5,23.0,83,59,33,0.00,40.00,6,3,10,0.00
2012-12-6,69.0,57.4,51.0,53.0,46.1,-99.9,94,72,50,0.00,40.00,12,8,22,0.00
2012-12-7,74.0,60.9,51.0,56.0,50.9,42.0,91,72,44,0.00,40.00,11,6,22,0.00
2012-12-8,60.0,53.4,52.0,52.0,47.0,46.0,83,79,70,0.00,40.00,6,4,11,0.00
2012-12-9,70.0,65.4,54.0,65.0,58.7,45.0,90,79,57,0.00,40.00,11,8,19,0.00
2012-12-10,44.0,39.3,34.0,22.0,17.0,15.0,55,41,33,0.00,40.00,9,6,15,0.00
2012-12-11,50.0,32.4,25.0,20.0,12.7,0.0,75,50,17,0.00,40.00,5,2,11,0.00
2012-12-12,59.0,44.8,31.0,23.0,18.8,11.0,61,37,21,0.00,40.00,10,6,19,0.00
2012-12-13,66.0,50.7,37.0,32.0,23.2,18.0,49,35,24,0.00,40.00,9,8,19,0.00
2012-12-14,61.0,56.3,51.0,58.0,41.6,24.0,89,61,33,0.00,40.00,15,9,25,0.23
2012-12-15,73.0,62.7,56.0,58.0,43.6,31.0,94,55,22,0.00,40.00,9,5,25,0.18
2012-12-16,74.0,62.0,54.0,46.0,38.9,32.0,68,45,22,0.00,40.00,7,4,13,0.00
2012-12-17,63.0,53.3,44.0,39.0,35.8,30.0,76,52,37,0.00,40.00,6,5,13,0.00
2012-12-18,80.0,63.1,49.0,45.0,31.8,27.0,53,34,14,0.00,40.00,12,7,17,0.00
2012-12-19,79.0,69.7,62.0,63.0,57.5,24.0,87,67,22,0.00,40.00,16,12,31,0.11
2012-12-20,63.0,44.3,32.0,26.0,17.5,7.0,53,37,16,0.00,40.00,16,10,31,0.11
2012-12-21,66.0,47.2,29.0,18.0,12.0,6.0,46,27,11,0.00,40.00,9,5,14,0.00
2012-12-22,68.0,54.3,41.0,45.0,27.1,11.0,58,36,21,0.00,40.00,12,8,21,0.00
2012-12-23,64.0,57.9,46.0,54.0,40.5,24.0,82,55,28,0.00,40.00,10,7,20,0.00
2012-12-24,54.0,43.7,35.0,29.0,27.0,24.0,66,52,35,0.00,40.00,7,4,13,0.00
2012-12-25,47.0,38.1,29.0,44.0,33.2,23.0,93,83,54,0.00,40.00,14,9,26,0.93
2012-12-26,34.0,27.2,22.0,23.0,19.0,14.0,85,71,61,0.00,40.00,13,7,25,0.07
2012-12-27,47.0,35.1,22.0,41.0,29.4,18.0,91,80,62,0.00,40.00,8,4,14,0.01
2012-12-28,44.0,39.0,32.0,41.0,33.8,22.0,94,82,63,0.00,40.00,12,8,20,0.02
2012-12-29,45.0,35.0,25.0,23.0,20.4,18.0,80,57,37,0.00,40.00,7,5,12,0.01
2012-12-30,49.0,39.5,29.0,28.0,22.2,19.0,72,51,33,0.00,40.00,10,6,17,0.00
2012-12-31,50.0,44.0,38.0,47.0,39.4,25.0,94,85,51,0.00,40.00,9,4,20,0.18
2013-1-1,48.0,41.4,36.0,46.0,36.0,28.0,93,81,72,0.00,40.00,9,7,17,0.01